Time,TemperatureF,DewpointF,PressureIn,WindDirection,WindDirectionDegrees,WindSpeedMPH,WindSpeedGustMPH,Humidity,HourlyPrecipIn,Conditions,Clouds,dailyrainin,SolarRadiationWatts/m^2,SoftwareType,DateUTC
2013-01-22 00:02:00,32.0,25.0,-100.00,East,93,2.0,3.0,75,0.00,,,0.00,0.000000,,2013-01-22 08:02:00,
2013-01-22 00:11:00,32.0,25.0,-100.00,East,93,2.0,3.0,75,0.00,,,0.00,0.000000,,2013-01-22 08:11:00,
2013-01-22 00:33:00,31.0,25.0,-100.00,East,89,2.0,4.0,77,0.00,,,0.00,0.000000,,2013-01-22 08:33:00,
2013-01-22 00:43:00,31.0,25.0,-100.00,East,89,2.0,4.0,77,0.00,,,0.00,0.000000,,2013-01-22 08:43:00,
2013-01-22 00:52:00,31.0,25.0,-100.00,East,89,2.0,4.0,77,0.00,,,0.00,0.000000,,2013-01-22 08:52:00,
2013-01-22 01:02:00,31.0,25.0,-100.00,East,89,2.0,4.0,77,0.00,,,0.00,0.000000,,2013-01-22 09:02:00,
2013-01-22 01:11:00,31.0,25.0,-100.00,East,89,2.0,4.0,77,0.00,,,0.00,0.000000,,2013-01-22 09:11:00,
2013-01-22 01:33:00,31.0,24.0,-100.00,ENE,72,1.0,4.0,76,0.00,,,-99.99,0.000000,,2013-01-22 09:33:00,
2013-01-22 01:43:00,31.0,24.0,-100.00,ENE,72,1.0,4.0,76,0.00,,,-99.99,0.000000,,2013-01-22 09:43:00,
2013-01-22 01:52:00,31.0,24.0,-100.00,ENE,72,1.0,4.0,76,0.00,,,-99.99,0.000000,,2013-01-22 09:52:00,
2013-01-22 02:02:00,31.0,24.0,-100.00,ENE,72,1.0,4.0,76,0.00,,,-99.99,0.000000,,2013-01-22 10:02:00,
2013-01-22 02:11:00,31.0,24.0,-100.00,ENE,72,1.0,4.0,76,0.00,,,-99.99,0.000000,,2013-01-22 10:11:00,
2013-01-22 02:12:00,31.0,24.0,-100.00,East,91,2.0,4.0,74,0.00,,,0.00,0.000000,,2013-01-22 10:12:00,
2013-01-22 02:33:00,31.0,24.0,-100.00,East,91,2.0,4.0,74,0.00,,,0.00,0.000000,,2013-01-22 10:33:00,
2013-01-22 02:42:00,31.0,24.0,-100.00,East,91,2.0,4.0,74,0.00,,,0.00,0.000000,,2013-01-22 10:42:00,
2013-01-22 02:52:00,31.0,24.0,-100.00,East,91,2.0,4.0,74,0.00,,,0.00,0.000000,,2013-01-22 10:52:00,
2013-01-22 03:02:00,31.0,24.0,-100.00,East,91,2.0,4.0,74,0.00,,,0.00,0.000000,,2013-01-22 11:02:00,
2013-01-22 03:12:00,31.0,23.0,-100.00,East,81,2.0,5.0,73,0.00,,,0.00,0.000000,,2013-01-22 11:12:00,
2013-01-22 03:33:00,31.0,23.0,-100.00,East,81,2.0,5.0,73,0.00,,,0.00,0.000000,,2013-01-22 11:33:00,
2013-01-22 03:43:00,31.0,23.0,-100.00,East,81,2.0,5.0,73,0.00,,,0.00,0.000000,,2013-01-22 11:43:00,
2013-01-22 03:53:00,31.0,23.0,-100.00,East,81,2.0,5.0,73,0.00,,,0.00,0.000000,,2013-01-22 11:53:00,
2013-01-22 04:03:00,31.0,23.0,-100.00,East,81,2.0,5.0,73,0.00,,,0.00,0.000000,,2013-01-22 12:03:00,
2013-01-22 04:33:00,31.0,22.0,-100.00,ENE,67,2.0,3.0,70,0.00,,,0.00,0.000000,,2013-01-22 12:33:00,
2013-01-22 04:43:00,31.0,22.0,-100.00,ENE,67,2.0,3.0,70,0.00,,,0.00,0.000000,,2013-01-22 12:43:00,
2013-01-22 04:53:00,31.0,22.0,-100.00,ENE,67,2.0,3.0,70,0.00,,,0.00,0.000000,,2013-01-22 12:53:00,
2013-01-22 05:03:00,31.0,22.0,-100.00,ENE,67,2.0,3.0,70,0.00,,,0.00,0.000000,,2013-01-22 13:03:00,
2013-01-22 05:11:00,31.0,22.0,-100.00,ENE,67,2.0,3.0,70,0.00,,,0.00,0.000000,,2013-01-22 13:11:00,
2013-01-22 05:12:00,31.0,24.0,-100.00,East,87,2.0,4.0,74,0.00,,,0.00,0.000000,,2013-01-22 13:12:00,
2013-01-22 05:33:00,31.0,24.0,-100.00,East,87,2.0,4.0,74,0.00,,,0.00,0.000000,,2013-01-22 13:33:00,
2013-01-22 05:43:00,31.0,24.0,-100.00,East,87,2.0,4.0,74,0.00,,,0.00,0.000000,,2013-01-22 13:43:00,
2013-01-22 05:53:00,31.0,24.0,-100.00,East,87,2.0,4.0,74,0.00,,,0.00,0.000000,,2013-01-22 13:53:00,
2013-01-22 06:02:00,31.0,24.0,-100.00,East,87,2.0,4.0,74,0.00,,,0.00,0.000000,,2013-01-22 14:02:00,
2013-01-22 06:12:00,31.0,24.0,-100.00,East,88,2.0,4.0,74,0.00,,,0.00,0.000000,,2013-01-22 14:12:00,
2013-01-22 06:34:00,31.0,24.0,-100.00,East,88,2.0,4.0,74,0.00,,,0.00,0.000000,,2013-01-22 14:34:00,
2013-01-22 06:44:00,31.0,24.0,-100.00,East,88,2.0,4.0,74,0.00,,,0.00,0.000000,,2013-01-22 14:44:00,
2013-01-22 06:53:00,31.0,24.0,-100.00,East,88,2.0,4.0,74,0.00,,,0.00,0.000000,,2013-01-22 14:53:00,
2013-01-22 07:03:00,31.0,24.0,-100.00,East,88,2.0,4.0,74,0.00,,,0.00,0.000000,,2013-01-22 15:03:00,
2013-01-22 07:12:00,30.0,22.0,-100.00,East,81,2.0,4.0,72,0.00,,,-99.99,0.000000,,2013-01-22 15:12:00,
2013-01-22 07:43:00,30.0,22.0,-100.00,East,81,2.0,4.0,72,0.00,,,-99.99,0.000000,,2013-01-22 15:43:00,
2013-01-22 07:53:00,30.0,22.0,-100.00,East,81,2.0,4.0,72,0.00,,,-99.99,0.000000,,2013-01-22 15:53:00,
2013-01-22 08:03:00,30.0,22.0,-100.00,East,81,2.0,4.0,72,0.00,,,-99.99,0.000000,,2013-01-22 16:03:00,
2013-01-22 08:12:00,30.0,21.0,-100.00,ENE,76,2.0,3.0,70,0.00,,,-99.99,3.000000,,2013-01-22 16:12:00,
2013-01-22 08:43:00,30.0,21.0,-100.00,ENE,76,2.0,3.0,70,0.00,,,-99.99,3.000000,,2013-01-22 16:43:00,
2013-01-22 08:53:00,30.0,21.0,-100.00,ENE,76,2.0,3.0,70,0.00,,,-99.99,3.000000,,2013-01-22 16:53:00,
2013-01-22 09:03:00,30.0,21.0,-100.00,ENE,76,2.0,3.0,70,0.00,,,-99.99,3.000000,,2013-01-22 17:03:00,
2013-01-22 09:12:00,31.0,23.0,-100.00,East,95,2.0,3.0,71,0.00,,,-99.99,39.000000,,2013-01-22 17:12:00,
2013-01-22 09:35:00,31.0,23.0,-100.00,East,95,2.0,3.0,71,0.00,,,-99.99,39.000000,,2013-01-22 17:35:00,
2013-01-22 09:44:00,31.0,23.0,-100.00,East,95,2.0,3.0,71,0.00,,,-99.99,39.000000,,2013-01-22 17:44:00,
2013-01-22 09:53:00,31.0,23.0,-100.00,East,95,2.0,3.0,71,0.00,,,-99.99,39.000000,,2013-01-22 17:53:00,
2013-01-22 10:03:00,31.0,23.0,-100.00,East,95,2.0,3.0,71,0.00,,,-99.99,39.000000,,2013-01-22 18:03:00,
2013-01-22 10:12:00,34.0,22.0,-100.00,ESE,102,3.0,6.0,61,0.00,,,0.00,131.000000,,2013-01-22 18:12:00,
2013-01-22 10:34:00,34.0,22.0,-100.00,ESE,102,3.0,6.0,61,0.00,,,0.00,131.000000,,2013-01-22 18:34:00,
2013-01-22 10:43:00,34.0,22.0,-100.00,ESE,102,3.0,6.0,61,0.00,,,0.00,131.000000,,2013-01-22 18:43:00,
2013-01-22 10:53:00,34.0,22.0,-100.00,ESE,102,3.0,6.0,61,0.00,,,0.00,131.000000,,2013-01-22 18:53:00,
2013-01-22 11:03:00,34.0,22.0,-100.00,ESE,102,3.0,6.0,61,0.00,,,0.00,131.000000,,2013-01-22 19:03:00,
2013-01-22 11:12:00,35.0,23.0,-100.00,ESE,104,3.0,5.0,61,0.00,,,0.00,166.000000,,2013-01-22 19:12:00,
2013-01-22 11:34:00,35.0,23.0,-100.00,ESE,104,3.0,5.0,61,0.00,,,0.00,166.000000,,2013-01-22 19:34:00,
2013-01-22 11:43:00,35.0,23.0,-100.00,ESE,104,3.0,5.0,61,0.00,,,0.00,166.000000,,2013-01-22 19:43:00,
2013-01-22 11:54:00,35.0,23.0,-100.00,ESE,104,3.0,5.0,61,0.00,,,0.00,166.000000,,2013-01-22 19:54:00,
2013-01-22 12:02:00,35.0,23.0,-100.00,ESE,104,3.0,5.0,61,0.00,,,0.00,166.000000,,2013-01-22 20:02:00,
2013-01-22 12:12:00,36.0,22.0,-100.00,ESE,113,3.0,7.0,57,0.00,,,-99.99,166.000000,,2013-01-22 20:12:00,
2013-01-22 12:34:00,36.0,22.0,-100.00,ESE,113,3.0,7.0,57,0.00,,,-99.99,166.000000,,2013-01-22 20:34:00,
2013-01-22 12:43:00,36.0,22.0,-100.00,ESE,113,3.0,7.0,57,0.00,,,-99.99,166.000000,,2013-01-22 20:43:00,
2013-01-22 12:53:00,36.0,22.0,-100.00,ESE,113,3.0,7.0,57,0.00,,,-99.99,166.000000,,2013-01-22 20:53:00,
2013-01-22 13:03:00,36.0,22.0,-100.00,ESE,113,3.0,7.0,57,0.00,,,-99.99,166.000000,,2013-01-22 21:03:00,
2013-01-22 13:12:00,38.0,26.0,-100.00,SSE,152,4.0,7.0,61,0.00,,,0.00,161.000000,,2013-01-22 21:12:00,
2013-01-22 13:43:00,38.0,26.0,-100.00,SSE,152,4.0,7.0,61,0.00,,,0.00,161.000000,,2013-01-22 21:43:00,
2013-01-22 13:53:00,38.0,26.0,-100.00,SSE,152,4.0,7.0,61,0.00,,,0.00,161.000000,,2013-01-22 21:53:00,
2013-01-22 14:02:00,38.0,26.0,-100.00,SSE,152,4.0,7.0,61,0.00,,,0.00,161.000000,,2013-01-22 22:02:00,
2013-01-22 14:12:00,38.0,25.0,-100.00,South,181,3.0,6.0,59,0.00,,,0.00,146.000000,,2013-01-22 22:12:00,
2013-01-22 14:43:00,38.0,25.0,-100.00,South,181,3.0,6.0,59,0.00,,,0.00,146.000000,,2013-01-22 22:43:00,
2013-01-22 14:53:00,38.0,25.0,-100.00,South,181,3.0,6.0,59,0.00,,,0.00,146.000000,,2013-01-22 22:53:00,
2013-01-22 15:02:00,38.0,25.0,-100.00,South,181,3.0,6.0,59,0.00,,,0.00,146.000000,,2013-01-22 23:02:00,
2013-01-22 15:12:00,39.0,25.0,-100.00,ENE,61,1.0,4.0,57,0.00,,,0.00,100.000000,,2013-01-22 23:12:00,
2013-01-22 15:33:00,39.0,25.0,-100.00,ENE,61,1.0,4.0,57,0.00,,,0.00,100.000000,,2013-01-22 23:33:00,
2013-01-22 15:43:00,39.0,25.0,-100.00,ENE,61,1.0,4.0,57,0.00,,,0.00,100.000000,,2013-01-22 23:43:00,
2013-01-22 15:53:00,39.0,25.0,-100.00,ENE,61,1.0,4.0,57,0.00,,,0.00,100.000000,,2013-01-22 23:53:00,
2013-01-22 16:02:00,39.0,25.0,-100.00,ENE,61,1.0,4.0,57,0.00,,,0.00,100.000000,,2013-01-23 00:02:00,
2013-01-22 16:12:00,39.0,24.0,-100.00,East,88,1.0,4.0,55,0.00,,,0.00,53.000000,,2013-01-23 00:12:00,
2013-01-22 16:43:00,39.0,24.0,-100.00,East,88,1.0,4.0,55,0.00,,,0.00,53.000000,,2013-01-23 00:43:00,
2013-01-22 16:52:00,39.0,24.0,-100.00,East,88,1.0,4.0,55,0.00,,,0.00,53.000000,,2013-01-23 00:52:00,
2013-01-22 17:02:00,39.0,24.0,-100.00,East,88,1.0,4.0,55,0.00,,,0.00,53.000000,,2013-01-23 01:02:00,
2013-01-22 17:12:00,40.0,24.0,-100.00,East,85,2.0,4.0,52,0.00,,,-99.99,18.000000,,2013-01-23 01:12:00,
2013-01-22 17:33:00,40.0,24.0,-100.00,East,85,2.0,4.0,52,0.00,,,-99.99,18.000000,,2013-01-23 01:33:00,
2013-01-22 17:43:00,40.0,24.0,-100.00,East,85,2.0,4.0,52,0.00,,,-99.99,18.000000,,2013-01-23 01:43:00,
2013-01-22 17:53:00,40.0,24.0,-100.00,East,85,2.0,4.0,52,0.00,,,-99.99,18.000000,,2013-01-23 01:53:00,
2013-01-22 18:03:00,40.0,24.0,-100.00,East,85,2.0,4.0,52,0.00,,,-99.99,18.000000,,2013-01-23 02:03:00,
2013-01-22 18:12:00,39.0,24.0,-100.00,East,93,2.0,5.0,54,0.00,,,0.00,0.000000,,2013-01-23 02:12:00,
2013-01-22 18:43:00,39.0,24.0,-100.00,East,93,2.0,5.0,54,0.00,,,0.00,0.000000,,2013-01-23 02:43:00,
2013-01-22 18:53:00,39.0,24.0,-100.00,East,93,2.0,5.0,54,0.00,,,0.00,0.000000,,2013-01-23 02:53:00,
2013-01-22 19:03:00,39.0,24.0,-100.00,East,93,2.0,5.0,54,0.00,,,0.00,0.000000,,2013-01-23 03:03:00,
2013-01-22 19:12:00,38.0,24.0,-100.00,ENE,78,1.0,4.0,57,0.00,,,0.00,0.000000,,2013-01-23 03:12:00,
2013-01-22 19:33:00,38.0,24.0,-100.00,ENE,78,1.0,4.0,57,0.00,,,0.00,0.000000,,2013-01-23 03:33:00,
2013-01-22 19:43:00,38.0,24.0,-100.00,ENE,78,1.0,4.0,57,0.00,,,0.00,0.000000,,2013-01-23 03:43:00,
2013-01-22 19:53:00,38.0,24.0,-100.00,ENE,78,1.0,4.0,57,0.00,,,0.00,0.000000,,2013-01-23 03:53:00,
2013-01-22 20:03:00,38.0,24.0,-100.00,ENE,78,1.0,4.0,57,0.00,,,0.00,0.000000,,2013-01-23 04:03:00,
2013-01-22 20:12:00,38.0,24.0,-100.00,ENE,66,2.0,4.0,57,0.00,,,0.00,0.000000,,2013-01-23 04:12:00,
2013-01-22 20:33:00,38.0,24.0,-100.00,ENE,66,2.0,4.0,57,0.00,,,0.00,0.000000,,2013-01-23 04:33:00,
2013-01-22 20:43:00,38.0,24.0,-100.00,ENE,66,2.0,4.0,57,0.00,,,0.00,0.000000,,2013-01-23 04:43:00,
2013-01-22 20:53:00,38.0,24.0,-100.00,ENE,66,2.0,4.0,57,0.00,,,0.00,0.000000,,2013-01-23 04:53:00,
2013-01-22 21:03:00,38.0,24.0,-100.00,ENE,66,2.0,4.0,57,0.00,,,0.00,0.000000,,2013-01-23 05:03:00,
2013-01-22 21:12:00,38.0,22.0,-100.00,ENE,58,1.0,4.0,53,0.00,,,0.00,0.000000,,2013-01-23 05:12:00,
2013-01-22 21:33:00,38.0,22.0,-100.00,ENE,58,1.0,4.0,53,0.00,,,0.00,0.000000,,2013-01-23 05:33:00,
2013-01-22 21:43:00,38.0,22.0,-100.00,ENE,58,1.0,4.0,53,0.00,,,0.00,0.000000,,2013-01-23 05:43:00,
2013-01-22 21:53:00,38.0,22.0,-100.00,ENE,58,1.0,4.0,53,0.00,,,0.00,0.000000,,2013-01-23 05:53:00,
2013-01-22 22:02:00,38.0,22.0,-100.00,ENE,58,1.0,4.0,53,0.00,,,0.00,0.000000,,2013-01-23 06:02:00,
2013-01-22 22:33:00,39.0,22.0,-100.00,ESE,108,2.0,4.0,51,0.00,,,0.00,0.000000,,2013-01-23 06:33:00,
2013-01-22 22:43:00,39.0,22.0,-100.00,ESE,108,2.0,4.0,51,0.00,,,0.00,0.000000,,2013-01-23 06:43:00,
2013-01-22 22:53:00,39.0,22.0,-100.00,ESE,108,2.0,4.0,51,0.00,,,0.00,0.000000,,2013-01-23 06:53:00,
2013-01-22 23:02:00,39.0,22.0,-100.00,ESE,108,2.0,4.0,51,0.00,,,0.00,0.000000,,2013-01-23 07:02:00,
2013-01-22 23:11:00,39.0,22.0,-100.00,ESE,108,2.0,4.0,51,0.00,,,0.00,0.000000,,2013-01-23 07:11:00,
2013-01-22 23:12:00,38.0,22.0,-100.00,East,79,2.0,4.0,53,0.00,,,0.00,0.000000,,2013-01-23 07:12:00,
2013-01-22 23:33:00,38.0,22.0,-100.00,East,79,2.0,4.0,53,0.00,,,0.00,0.000000,,2013-01-23 07:33:00,
2013-01-22 23:43:00,38.0,22.0,-100.00,East,79,2.0,4.0,53,0.00,,,0.00,0.000000,,2013-01-23 07:43:00,
2013-01-22 23:53:00,38.0,22.0,-100.00,East,79,2.0,4.0,53,0.00,,,0.00,0.000000,,2013-01-23 07:53:00,